Time;durP1;ratioP1;P1;durP2;ratioP2;P2;SDS_P1;SDS_P2;PMS_P1;PMS_P2;Temp;Humidity;BMP_temperature;BMP_pressure;BME280_temperature;BME280_humidity;BME280_pressure;Samples;Min_cycle;Max_cycle;Signal;HPM_P1;HPM_P2
2023/08/16 00:02:18;;;;;;;1.42;1.00;;;12.50;1.00;;;;;;4999883;28;20054;-79
2023/08/16 00:04:45;;;;;;;1.52;1.13;;;12.50;1.00;;;;;;4980719;28;20038;-79
2023/08/16 00:07:11;;;;;;;1.88;1.30;;;12.50;1.00;;;;;;5005330;28;20042;-79
2023/08/16 00:09:38;;;;;;;2.97;1.38;;;12.50;1.00;;;;;;4977310;28;20038;-79
2023/08/16 00:12:04;;;;;;;2.55;2.03;;;12.50;1.00;;;;;;4982543;28;20049;-79
2023/08/16 00:14:30;;;;;;;3.35;1.60;;;12.50;1.00;;;;;;5001197;28;20053;-81
2023/08/16 00:16:57;;;;;;;3.83;1.88;;;12.40;1.00;;;;;;4985971;28;20122;-79
2023/08/16 00:19:23;;;;;;;1.55;1.20;;;12.40;1.00;;;;;;4979824;28;20046;-79
2023/08/16 00:21:48;;;;;;;3.83;1.88;;;12.30;1.00;;;;;;4991203;28;20038;-79
2023/08/16 00:24:14;;;;;;;3.58;1.73;;;12.20;1.00;;;;;;4990620;28;20070;-79
2023/08/16 00:26:40;;;;;;;4.30;1.83;;;12.20;1.20;;;;;;4990959;28;20398;-81
2023/08/16 00:29:05;;;;;;;2.22;1.70;;;12.10;9.30;;;;;;5004566;28;20596;-79
2023/08/16 00:31:31;;;;;;;4.43;1.88;;;12.10;11.70;;;;;;5001476;28;20046;-79
2023/08/16 00:33:57;;;;;;;4.57;1.48;;;12.00;10.60;;;;;;4986045;28;20038;-79
2023/08/16 00:36:22;;;;;;;2.63;1.88;;;12.00;13.40;;;;;;5007925;28;20077;-80
2023/08/16 00:38:48;;;;;;;2.42;1.65;;;11.90;20.70;;;;;;4989199;28;20026;-79
2023/08/16 00:41:14;;;;;;;3.83;1.70;;;11.80;27.30;;;;;;5006048;28;20483;-79
2023/08/16 00:43:40;;;;;;;3.05;1.50;;;12.00;39.10;;;;;;5000858;28;20084;-79
2023/08/16 00:46:10;;;;;;;3.15;1.70;;;12.00;43.40;;;;;;4974854;28;20042;-79
2023/08/16 00:48:37;;;;;;;2.28;1.40;;;11.90;44.10;;;;;;4987127;28;20046;-78
2023/08/16 00:51:03;;;;;;;4.15;1.38;;;11.90;45.10;;;;;;4977387;28;20383;-79
2023/08/16 00:53:30;;;;;;;3.53;1.50;;;11.80;50.70;;;;;;4969764;28;20539;-79
2023/08/16 00:55:57;;;;;;;1.27;0.90;;;11.90;55.30;;;;;;4991193;28;20104;-79
2023/08/16 00:58:23;;;;;;;1.65;1.10;;;11.80;56.60;;;;;;4979039;28;20042;-78
2023/08/16 01:00:49;;;;;;;1.65;1.40;;;11.90;54.00;;;;;;4971692;28;20692;-79
2023/08/16 01:03:14;;;;;;;1.67;1.20;;;11.80;52.50;;;;;;5001423;28;20512;-79
2023/08/16 01:05:40;;;;;;;1.90;1.42;;;11.70;52.40;;;;;;4990139;28;20037;-78
2023/08/16 01:08:06;;;;;;;4.55;1.30;;;11.70;52.30;;;;;;4992030;28;20039;-79
2023/08/16 01:10:47;;;;;;;1.50;1.23;;;11.60;54.00;;;;;;4981301;28;20042;-79
2023/08/16 01:13:26;;;;;;;3.85;1.33;;;11.60;61.90;;;;;;4984345;28;20047;-79
2023/08/16 01:15:55;;;;;;;3.80;1.30;;;11.60;64.50;;;;;;4986071;28;20504;-79
2023/08/16 01:18:23;;;;;;;2.05;1.20;;;11.60;66.80;;;;;;4954154;28;20497;-79
2023/08/16 01:20:50;;;;;;;2.28;1.30;;;11.60;70.80;;;;;;5001529;28;20022;-79
2023/08/16 01:23:34;;;;;;;3.08;1.00;;;11.60;67.10;;;;;;4980279;28;20455;-79
2023/08/16 01:26:08;;;;;;;1.77;1.15;;;11.60;66.20;;;;;;4985038;28;20054;-79
2023/08/16 01:28:36;;;;;;;1.17;0.85;;;11.50;65.40;;;;;;4999508;28;20073;-79
2023/08/16 01:31:03;;;;;;;1.88;1.15;;;11.50;74.40;;;;;;4978312;28;20034;-78
2023/08/16 01:33:29;;;;;;;1.50;1.20;;;11.50;79.40;;;;;;5002796;28;20042;-79
2023/08/16 01:35:55;;;;;;;2.55;1.10;;;11.50;83.60;;;;;;4978040;28;20608;-79
2023/08/16 01:38:21;;;;;;;3.38;1.30;;;11.50;83.70;;;;;;4986350;28;20042;-79
2023/08/16 01:41:02;;;;;;;3.05;1.58;;;11.50;81.30;;;;;;4987245;28;20397;-79
2023/08/16 01:43:29;;;;;;;2.50;1.67;;;11.50;80.30;;;;;;4984309;28;20037;-79
2023/08/16 01:45:56;;;;;;;2.25;1.20;;;11.50;83.30;;;;;;4987216;28;20057;-79
2023/08/16 01:48:25;;;;;;;1.90;1.30;;;11.50;84.10;;;;;;4987375;28;20105;-79
2023/08/16 01:50:51;;;;;;;2.08;1.08;;;11.50;86.10;;;;;;4987421;28;20046;-79
2023/08/16 01:53:18;;;;;;;2.20;1.20;;;11.50;86.30;;;;;;4974505;28;20088;-79
2023/08/16 01:55:44;;;;;;;1.52;1.10;;;11.40;87.70;;;;;;4988920;28;20683;-79
2023/08/16 01:58:09;;;;;;;1.60;1.35;;;11.40;88.00;;;;;;4985793;28;20060;-79
2023/08/16 02:00:36;;;;;;;2.42;1.40;;;11.40;90.00;;;;;;4987975;28;20045;-79
2023/08/16 02:03:01;;;;;;;1.92;1.27;;;11.40;89.20;;;;;;4987621;28;20061;-79
2023/08/16 02:05:27;;;;;;;1.58;1.00;;;11.40;87.90;;;;;;5011786;28;20509;-78
2023/08/16 02:07:53;;;;;;;2.15;1.20;;;11.30;88.20;;;;;;4988297;28;20141;-79
2023/08/16 02:10:19;;;;;;;1.73;1.13;;;11.30;86.20;;;;;;4996824;28;20053;-78
2023/08/16 02:12:45;;;;;;;3.63;1.60;;;11.30;84.00;;;;;;4984877;28;20046;-79
2023/08/16 02:15:11;;;;;;;2.60;1.40;;;11.20;86.60;;;;;;5000756;28;20535;-79
2023/08/16 02:17:37;;;;;;;3.60;1.92;;;11.20;90.00;;;;;;4984397;28;20489;-79
2023/08/16 02:20:04;;;;;;;2.25;1.50;;;11.30;90.30;;;;;;5001834;28;20045;-79
2023/08/16 02:22:30;;;;;;;3.22;1.60;;;11.20;90.00;;;;;;4991101;28;20037;-79
2023/08/16 02:24:56;;;;;;;2.92;2.10;;;11.20;90.10;;;;;;4975411;28;20129;-79
2023/08/16 02:27:21;;;;;;;2.38;1.63;;;11.20;90.20;;;;;;4992766;28;20066;-79
2023/08/16 02:29:47;;;;;;;1.45;1.20;;;11.10;88.90;;;;;;4969926;28;20081;-80
2023/08/16 02:32:13;;;;;;;2.05;1.30;;;11.10;91.00;;;;;;4983781;28;20053;-79
2023/08/16 02:34:38;;;;;;;2.75;2.05;;;11.00;94.10;;;;;;4972958;28;20126;-79
2023/08/16 02:37:04;;;;;;;3.40;1.65;;;11.00;95.20;;;;;;5002341;28;20046;-79
2023/08/16 02:39:30;;;;;;;4.60;1.90;;;11.00;94.90;;;;;;4980024;28;20062;-79
2023/08/16 02:41:55;;;;;;;2.65;2.05;;;11.10;94.60;;;;;;5005982;28;20044;-79
2023/08/16 02:44:21;;;;;;;5.82;2.22;;;11.00;94.70;;;;;;4971112;28;20049;-79
2023/08/16 02:46:47;;;;;;;5.60;2.00;;;10.90;96.70;;;;;;4986341;28;20038;-78
2023/08/16 02:49:12;;;;;;;5.22;2.40;;;10.90;99.70;;;;;;4972499;28;20061;-78
2023/08/16 02:51:38;;;;;;;4.07;2.35;;;11.00;99.90;;;;;;4988521;28;20042;-78
2023/08/16 02:54:06;;;;;;;4.63;2.10;;;11.00;99.90;;;;;;4987693;28;20077;-79
2023/08/16 02:56:31;;;;;;;2.53;2.10;;;11.00;99.90;;;;;;4975713;28;20531;-78
2023/08/16 02:58:57;;;;;;;4.18;2.15;;;10.90;99.30;;;;;;4987819;28;20066;-79
2023/08/16 03:01:23;;;;;;;3.90;2.50;;;11.00;99.90;;;;;;4988629;28;20042;-79
2023/08/16 03:03:48;;;;;;;3.45;2.30;;;11.00;99.90;;;;;;4996157;28;20042;-78
2023/08/16 03:06:15;;;;;;;3.95;2.33;;;11.00;99.90;;;;;;4992369;28;20504;-79
2023/08/16 03:08:40;;;;;;;4.13;2.50;;;11.00;99.90;;;;;;4997468;28;20050;-79
2023/08/16 03:11:06;;;;;;;2.63;1.95;;;10.90;99.90;;;;;;4986336;28;20581;-79
2023/08/16 03:13:32;;;;;;;6.03;2.38;;;10.90;99.90;;;;;;4992990;28;20049;-79
2023/08/16 03:15:57;;;;;;;4.05;2.40;;;10.90;99.90;;;;;;4983546;28;20089;-79
2023/08/16 03:18:23;;;;;;;2.67;1.77;;;10.80;99.90;;;;;;4981526;28;20042;-79
2023/08/16 03:20:48;;;;;;;2.92;1.60;;;10.90;99.90;;;;;;4987451;28;20035;-79
2023/08/16 03:23:14;;;;;;;2.33;1.00;;;10.90;99.90;;;;;;4984452;28;20538;-79
2023/08/16 03:25:41;;;;;;;2.03;1.13;;;10.90;99.90;;;;;;4993721;28;20037;-78
2023/08/16 03:28:06;;;;;;;1.92;1.45;;;11.00;99.90;;;;;;5001730;28;20573;-79
2023/08/16 03:30:32;;;;;;;3.80;1.70;;;10.90;99.90;;;;;;4982634;28;20054;-79
2023/08/16 03:32:58;;;;;;;3.72;1.98;;;10.80;99.90;;;;;;4986142;28;20043;-78
2023/08/16 03:35:23;;;;;;;5.90;2.90;;;10.70;99.90;;;;;;4984475;28;20053;-78
2023/08/16 03:37:49;;;;;;;5.72;3.17;;;10.80;99.90;;;;;;4985507;28;20038;-79
2023/08/16 03:40:14;;;;;;;6.60;3.17;;;10.80;99.90;;;;;;4992999;28;20122;-80
2023/08/16 03:42:40;;;;;;;5.47;3.13;;;10.90;99.90;;;;;;4973637;28;20046;-79
2023/08/16 03:45:06;;;;;;;5.60;3.28;;;10.90;99.90;;;;;;4998431;28;20125;-79
2023/08/16 03:47:33;;;;;;;5.78;2.88;;;10.90;99.90;;;;;;4984624;28;20043;-79
2023/08/16 03:49:59;;;;;;;5.85;1.80;;;10.90;99.90;;;;;;4985763;28;20444;-80
2023/08/16 03:52:26;;;;;;;2.35;1.08;;;10.90;99.90;;;;;;4976023;28;20050;-79
2023/08/16 03:54:53;;;;;;;1.23;0.95;;;10.90;99.90;;;;;;5001324;28;20038;-79
2023/08/16 03:57:19;;;;;;;1.15;0.80;;;10.80;99.90;;;;;;4965984;28;20038;-79
2023/08/16 03:59:45;;;;;;;2.95;1.23;;;10.70;99.90;;;;;;4991334;28;20501;-79
2023/08/16 04:02:10;;;;;;;1.73;1.15;;;10.70;99.90;;;;;;4989880;28;20081;-79
2023/08/16 04:04:36;;;;;;;1.50;1.25;;;10.60;99.90;;;;;;4976189;28;20481;-79
2023/08/16 04:07:02;;;;;;;2.58;1.10;;;10.60;99.90;;;;;;4980546;28;20043;-79
2023/08/16 04:09:27;;;;;;;5.72;1.60;;;10.50;99.90;;;;;;4993075;28;20421;-79
2023/08/16 04:11:53;;;;;;;3.10;1.60;;;10.40;99.90;;;;;;4972369;28;20034;-79
2023/08/16 04:14:18;;;;;;;4.72;2.25;;;10.40;99.90;;;;;;4984908;28;20125;-79
2023/08/16 04:16:44;;;;;;;2.35;1.63;;;10.40;99.90;;;;;;4985962;28;20038;-79
2023/08/16 04:19:10;;;;;;;2.05;1.52;;;10.40;99.90;;;;;;4968331;28;20090;-79
2023/08/16 04:21:35;;;;;;;1.60;1.27;;;10.50;99.90;;;;;;4969909;28;20121;-79
2023/08/16 04:24:01;;;;;;;3.92;1.80;;;10.50;99.90;;;;;;4989714;28;20042;-79
2023/08/16 04:26:27;;;;;;;2.55;1.60;;;10.50;99.90;;;;;;5004855;28;20038;-80
2023/08/16 04:28:53;;;;;;;1.30;1.15;;;10.60;99.90;;;;;;4989755;28;20062;-80
2023/08/16 04:31:18;;;;;;;2.72;1.42;;;10.60;99.90;;;;;;4986078;28;20051;-79
2023/08/16 04:33:44;;;;;;;2.40;1.65;;;10.60;99.90;;;;;;4979156;28;20061;-79
2023/08/16 04:36:10;;;;;;;1.67;1.33;;;10.50;99.90;;;;;;4983435;28;20045;-79
2023/08/16 04:38:35;;;;;;;2.40;1.58;;;10.60;99.90;;;;;;4994741;28;20034;-79
2023/08/16 04:41:01;;;;;;;3.13;1.60;;;10.60;99.90;;;;;;4990000;28;20081;-79
2023/08/16 04:43:26;;;;;;;2.50;1.70;;;10.60;99.90;;;;;;4995983;28;20391;-79
2023/08/16 04:45:52;;;;;;;2.95;1.98;;;10.60;99.90;;;;;;4984831;28;20034;-79
2023/08/16 04:48:18;;;;;;;3.70;2.00;;;10.60;99.90;;;;;;4972496;28;20104;-79
2023/08/16 04:50:44;;;;;;;2.97;1.77;;;10.60;99.90;;;;;;4980582;28;20053;-79
2023/08/16 04:53:09;;;;;;;4.15;1.90;;;10.70;99.90;;;;;;4981417;28;20447;-78
2023/08/16 04:55:35;;;;;;;2.92;2.22;;;10.60;99.90;;;;;;4976056;28;20101;-79
2023/08/16 04:58:00;;;;;;;3.63;2.20;;;10.70;99.90;;;;;;4986226;28;20034;-79
2023/08/16 05:00:26;;;;;;;2.72;1.85;;;10.70;99.90;;;;;;4978468;28;20026;-79
2023/08/16 05:02:52;;;;;;;3.78;2.08;;;10.70;99.90;;;;;;4986780;28;20034;-79
2023/08/16 05:05:17;;;;;;;4.93;2.03;;;10.70;99.90;;;;;;4993947;28;20117;-78
2023/08/16 05:07:43;;;;;;;3.92;1.85;;;10.70;99.90;;;;;;4991950;28;20056;-80
2023/08/16 05:10:09;;;;;;;3.15;2.17;;;10.80;99.90;;;;;;4979148;28;20046;-80
2023/08/16 05:12:34;;;;;;;3.47;2.30;;;10.90;99.90;;;;;;4987861;28;20105;-79
2023/08/16 05:15:00;;;;;;;5.15;2.42;;;11.00;99.90;;;;;;4983791;28;20053;-80
2023/08/16 05:17:26;;;;;;;3.80;2.30;;;11.00;99.90;;;;;;4981105;28;20042;-79
2023/08/16 05:19:52;;;;;;;2.92;1.92;;;11.10;99.90;;;;;;5000712;28;20740;-80
2023/08/16 05:22:19;;;;;;;4.80;2.42;;;11.20;99.90;;;;;;5005291;28;20129;-79
2023/08/16 05:24:45;;;;;;;3.47;2.10;;;11.20;99.90;;;;;;4975831;28;20042;-79
2023/08/16 05:27:13;;;;;;;3.95;2.50;;;11.10;99.90;;;;;;4973671;28;20475;-79
2023/08/16 05:29:40;;;;;;;3.75;2.78;;;11.20;99.90;;;;;;4985395;28;20062;-80
2023/08/16 05:32:06;;;;;;;4.10;2.65;;;11.30;99.90;;;;;;4969130;28;20100;-79
2023/08/16 05:34:32;;;;;;;4.95;3.00;;;11.40;99.90;;;;;;4993452;28;20420;-79
2023/08/16 05:36:57;;;;;;;4.13;3.30;;;11.40;99.90;;;;;;4981029;28;20069;-79
2023/08/16 05:39:23;;;;;;;5.82;3.05;;;11.40;99.90;;;;;;4968425;28;20042;-79
2023/08/16 05:41:48;;;;;;;5.45;2.85;;;11.50;99.90;;;;;;4984152;28;20096;-79
2023/08/16 05:44:14;;;;;;;7.10;3.53;;;11.70;99.90;;;;;;4972968;28;20105;-80
2023/08/16 05:46:40;;;;;;;6.53;3.90;;;11.70;99.90;;;;;;4991745;28;20105;-79
2023/08/16 05:49:06;;;;;;;8.75;4.60;;;11.80;99.90;;;;;;4982360;28;20496;-80
2023/08/16 05:51:33;;;;;;;6.13;4.45;;;11.90;99.90;;;;;;4985720;28;20136;-80
2023/08/16 05:53:59;;;;;;;8.95;4.50;;;12.00;99.90;;;;;;4986677;28;20038;-80
2023/08/16 05:56:25;;;;;;;8.07;4.18;;;12.20;99.90;;;;;;4986534;28;20042;-78
2023/08/16 05:58:50;;;;;;;8.27;4.57;;;12.30;99.90;;;;;;4969700;28;20543;-77
2023/08/16 06:01:16;;;;;;;9.43;5.18;;;12.40;99.90;;;;;;4962128;28;20429;-79
2023/08/16 06:03:41;;;;;;;8.80;5.38;;;12.60;99.90;;;;;;4985798;28;20054;-78
2023/08/16 06:06:07;;;;;;;8.55;5.15;;;12.80;99.90;;;;;;5004185;28;20034;-78
2023/08/16 06:08:33;;;;;;;7.40;4.82;;;13.00;99.90;;;;;;5002358;28;20074;-79
2023/08/16 06:10:58;;;;;;;6.38;4.55;;;13.30;99.90;;;;;;5004490;28;20512;-79
2023/08/16 06:13:25;;;;;;;7.43;4.68;;;13.60;99.90;;;;;;4986533;28;20043;-78
2023/08/16 06:15:51;;;;;;;9.00;4.43;;;13.90;99.90;;;;;;5003353;28;20046;-78
2023/08/16 06:18:17;;;;;;;6.60;4.10;;;14.10;99.90;;;;;;4984516;28;20034;-79
2023/08/16 06:20:43;;;;;;;7.05;4.60;;;14.30;99.90;;;;;;5002278;28;20104;-78
2023/08/16 06:23:10;;;;;;;6.07;4.40;;;14.50;99.90;;;;;;4973859;28;20054;-79
2023/08/16 06:25:35;;;;;;;7.97;4.97;;;14.70;99.90;;;;;;5004287;28;20073;-79
2023/08/16 06:28:01;;;;;;;5.80;4.15;;;14.80;99.90;;;;;;4986962;28;20559;-78
2023/08/16 06:30:27;;;;;;;5.93;4.45;;;14.90;99.90;;;;;;5002478;28;20064;-79
2023/08/16 06:32:53;;;;;;;6.80;4.50;;;15.10;99.90;;;;;;4984684;28;20134;-79
2023/08/16 06:35:19;;;;;;;6.63;4.40;;;15.20;99.90;;;;;;4993012;28;20046;-79
2023/08/16 06:37:46;;;;;;;7.93;4.95;;;15.30;99.90;;;;;;4971833;28;20053;-78
2023/08/16 06:40:12;;;;;;;7.90;5.10;;;15.40;99.90;;;;;;4992381;28;20053;-78
2023/08/16 06:42:39;;;;;;;6.65;4.53;;;15.50;99.90;;;;;;4990227;28;20042;-78
2023/08/16 06:45:06;;;;;;;6.93;4.57;;;15.60;99.90;;;;;;4986428;28;20074;-78
2023/08/16 06:47:32;;;;;;;5.90;3.92;;;15.70;99.90;;;;;;5002924;28;20053;-78
2023/08/16 06:49:58;;;;;;;7.85;4.10;;;15.70;99.90;;;;;;4982518;28;20038;-78
2023/08/16 06:52:23;;;;;;;8.32;4.80;;;15.80;99.90;;;;;;4972320;28;20413;-78
2023/08/16 06:54:49;;;;;;;7.88;4.57;;;15.80;99.90;;;;;;4993231;28;20544;-78
2023/08/16 06:57:15;;;;;;;7.97;4.55;;;15.90;99.90;;;;;;4973606;28;21048;-79
2023/08/16 06:59:41;;;;;;;7.82;4.40;;;16.00;99.90;;;;;;5002717;28;20046;-78
2023/08/16 07:02:11;;;;;;;6.18;4.78;;;16.00;99.90;;;;;;4982472;28;20596;-79
2023/08/16 07:04:38;;;;;;;6.20;4.40;;;16.10;99.90;;;;;;4993538;28;20520;-78
2023/08/16 07:07:07;;;;;;;7.05;4.13;;;16.30;99.90;;;;;;4984469;28;20133;-79
2023/08/16 07:09:33;;;;;;;7.38;4.68;;;16.40;99.90;;;;;;4984306;28;20042;-78
2023/08/16 07:11:59;;;;;;;8.27;4.50;;;16.40;99.90;;;;;;4985157;28;20053;-77
2023/08/16 07:14:24;;;;;;;7.20;4.22;;;16.50;99.90;;;;;;5002596;28;20038;-79
2023/08/16 07:16:51;;;;;;;9.23;5.30;;;16.60;99.90;;;;;;4986653;28;20046;-78
2023/08/16 07:19:17;;;;;;;5.05;4.00;;;16.70;99.90;;;;;;4986723;28;20042;-78
2023/08/16 07:21:43;;;;;;;6.18;3.90;;;16.80;99.90;;;;;;5001060;28;20030;-79
2023/08/16 07:24:09;;;;;;;8.80;4.45;;;16.80;99.90;;;;;;4985032;28;20128;-78
2023/08/16 07:26:34;;;;;;;9.75;3.83;;;16.90;99.90;;;;;;4983815;28;20643;-79
2023/08/16 07:29:00;;;;;;;5.68;3.75;;;17.10;99.90;;;;;;4986616;28;20060;-78
2023/08/16 07:31:26;;;;;;;6.10;3.88;;;17.10;99.90;;;;;;4969262;28;20104;-79
2023/08/16 07:33:51;;;;;;;4.97;3.90;;;17.10;99.90;;;;;;5002921;28;20540;-79
2023/08/16 07:36:17;;;;;;;9.57;4.15;;;17.20;99.90;;;;;;5000947;28;20034;-79
2023/08/16 07:38:42;;;;;;;5.80;3.72;;;17.10;99.90;;;;;;4979622;28;20042;-78
2023/08/16 07:41:08;;;;;;;9.40;3.50;;;17.20;99.90;;;;;;4983830;28;20050;-78
2023/08/16 07:43:34;;;;;;;7.50;3.10;;;17.20;99.90;;;;;;5000073;28;20034;-78
2023/08/16 07:46:00;;;;;;;6.43;2.78;;;17.40;99.90;;;;;;4999115;28;20038;-78
2023/08/16 07:48:25;;;;;;;5.78;2.50;;;17.50;99.90;;;;;;4980970;28;20046;-78
2023/08/16 07:50:51;;;;;;;3.72;2.50;;;17.50;99.90;;;;;;4983906;28;20381;-78
2023/08/16 07:53:17;;;;;;;2.75;1.90;;;17.60;99.90;;;;;;4981465;28;20046;-78
2023/08/16 07:55:43;;;;;;;3.47;2.00;;;17.60;99.90;;;;;;4978473;28;20388;-78
2023/08/16 07:58:09;;;;;;;5.20;2.10;;;17.60;97.30;;;;;;4972725;28;20038;-78
2023/08/16 08:00:35;;;;;;;4.30;2.40;;;17.60;93.60;;;;;;4984636;28;20105;-78
2023/08/16 08:03:01;;;;;;;4.15;2.15;;;17.60;86.80;;;;;;5004533;28;20050;-78
2023/08/16 08:05:27;;;;;;;2.85;2.10;;;17.60;79.50;;;;;;5002230;28;20046;-78
2023/08/16 08:07:53;;;;;;;6.13;1.95;;;17.60;71.90;;;;;;4999463;28;20424;-78
2023/08/16 08:10:19;;;;;;;5.25;1.90;;;17.70;60.00;;;;;;4989033;28;20109;-78
2023/08/16 08:12:45;;;;;;;4.22;1.42;;;17.80;49.90;;;;;;4988221;28;20034;-78
2023/08/16 08:15:11;;;;;;;2.75;1.50;;;17.80;42.00;;;;;;5005866;28;20125;-78
2023/08/16 08:17:37;;;;;;;3.85;1.55;;;17.90;23.50;;;;;;5003112;28;20125;-78
2023/08/16 08:20:04;;;;;;;3.35;1.17;;;17.90;6.20;;;;;;4988332;28;20049;-78
2023/08/16 08:22:30;;;;;;;5.63;1.38;;;17.90;1.00;;;;;;4987624;28;20520;-77
2023/08/16 08:24:56;;;;;;;2.58;1.58;;;17.90;1.00;;;;;;4968568;28;20038;-77
2023/08/16 08:27:21;;;;;;;2.60;1.50;;;17.90;1.00;;;;;;4976504;28;20046;-78
2023/08/16 08:29:47;;;;;;;3.55;1.27;;;18.00;1.00;;;;;;4970829;28;20425;-77
2023/08/16 08:32:13;;;;;;;3.65;1.45;;;18.10;1.00;;;;;;4987726;28;20058;-77
2023/08/16 08:34:39;;;;;;;1.77;1.40;;;18.10;1.00;;;;;;4973118;28;20107;-77
2023/08/16 08:37:04;;;;;;;1.60;1.25;;;18.20;1.00;;;;;;4976649;28;20070;-77
2023/08/16 08:39:32;;;;;;;3.40;1.33;;;18.20;1.00;;;;;;5001252;28;20077;-77
2023/08/16 08:41:58;;;;;;;3.05;1.20;;;18.40;1.00;;;;;;4987686;28;20083;-77
2023/08/16 08:44:24;;;;;;;1.23;0.90;;;18.50;1.00;;;;;;5005608;28;20046;-77
2023/08/16 08:46:51;;;;;;;2.35;1.10;;;18.60;1.00;;;;;;4988557;28;20049;-76
2023/08/16 08:49:20;;;;;;;0.90;0.75;;;18.80;99.90;;;;;;4980365;28;20042;-77
2023/08/16 08:51:47;;;;;;;3.00;0.80;;;19.00;99.90;;;;;;4981491;28;20039;-76
2023/08/16 08:54:13;;;;;;;2.38;1.00;;;19.20;99.90;;;;;;4985624;28;20620;-76
2023/08/16 08:56:40;;;;;;;1.95;1.10;;;19.40;99.90;;;;;;4972079;28;20145;-75
2023/08/16 08:59:06;;;;;;;1.67;0.65;;;19.60;99.90;;;;;;4991429;28;20401;-76
2023/08/16 09:01:34;;;;;;;3.95;1.42;;;19.90;1.00;;;;;;4981815;28;20047;-75
2023/08/16 09:04:02;;;;;;;1.05;0.85;;;20.50;1.00;;;;;;4991306;28;20042;-76
2023/08/16 09:06:28;;;;;;;1.05;0.93;;;21.80;99.90;;;;;;4974953;28;20125;-76
2023/08/16 09:08:56;;;;;;;2.95;1.00;;;23.00;99.90;;;;;;4987589;28;20181;-76
2023/08/16 09:11:22;;;;;;;2.97;0.90;;;23.60;97.00;;;;;;4969379;28;20050;-76
2023/08/16 09:13:48;;;;;;;1.50;0.75;;;24.00;39.10;;;;;;4990475;28;20082;-76
2023/08/16 09:16:14;;;;;;;1.73;0.73;;;24.50;16.80;;;;;;4981555;28;20042;-76
2023/08/16 09:18:50;;;;;;;2.58;0.75;;;25.20;1.00;;;;;;4987913;28;20034;-77
2023/08/16 09:21:18;;;;;;;2.05;0.90;;;25.70;1.00;;;;;;4982494;28;20057;-77
2023/08/16 09:23:44;;;;;;;0.95;0.77;;;26.40;1.00;;;;;;4993748;28;20054;-75
2023/08/16 09:26:17;;;;;;;1.38;0.80;;;26.80;1.00;;;;;;4988237;28;20492;-75
2023/08/16 09:28:43;;;;;;;2.65;1.17;;;27.20;1.00;;;;;;4988381;28;20456;-76
2023/08/16 09:31:10;;;;;;;3.17;1.17;;;27.00;1.00;;;;;;4986178;28;20512;-76
2023/08/16 09:33:37;;;;;;;3.33;1.00;;;27.20;1.00;;;;;;4986769;28;20382;-76
2023/08/16 09:36:04;;;;;;;3.25;0.90;;;28.10;1.00;;;;;;4978339;28;20053;-75
2023/08/16 09:38:30;;;;;;;3.47;1.30;;;29.00;1.00;;;;;;4986960;28;20089;-76
2023/08/16 09:40:56;;;;;;;4.07;1.20;;;29.80;1.00;;;;;;4979166;28;20127;-77
2023/08/16 09:43:21;;;;;;;3.25;1.27;;;30.50;1.00;;;;;;4992072;28;20050;-76
2023/08/16 09:45:54;;;;;;;2.75;1.27;;;30.90;1.00;;;;;;4973423;28;20049;-76
2023/08/16 09:48:24;;;;;;;3.35;0.95;;;31.10;1.00;;;;;;5002607;28;20050;-76
2023/08/16 09:50:50;;;;;;;1.92;0.88;;;31.10;1.00;;;;;;4991064;28;20197;-76
2023/08/16 09:53:16;;;;;;;4.32;1.00;;;31.30;1.00;;;;;;4985092;28;20133;-76
2023/08/16 09:55:45;;;;;;;2.40;1.20;;;31.30;1.00;;;;;;4981281;28;20041;-76
2023/08/16 09:58:12;;;;;;;1.92;0.93;;;31.50;1.00;;;;;;4986843;28;20109;-76
2023/08/16 10:00:40;;;;;;;2.75;1.10;;;32.10;1.00;;;;;;4998011;28;20370;-77
2023/08/16 10:03:08;;;;;;;3.00;0.98;;;32.40;1.00;;;;;;4985999;28;20062;-77
2023/08/16 10:05:34;;;;;;;1.98;0.70;;;32.50;1.00;;;;;;5001835;28;20042;-77
2023/08/16 10:08:04;;;;;;;1.25;0.90;;;32.90;1.00;;;;;;4984738;28;20595;-77
2023/08/16 10:10:31;;;;;;;1.27;0.90;;;33.40;1.00;;;;;;4998696;28;20057;-76
2023/08/16 10:12:58;;;;;;;0.70;0.63;;;33.50;1.00;;;;;;4983973;28;20108;-75
2023/08/16 10:15:26;;;;;;;1.23;0.70;;;33.30;1.00;;;;;;4970225;28;20094;-76
2023/08/16 10:17:52;;;;;;;2.13;0.73;;;33.30;1.00;;;;;;4983984;28;20125;-76
2023/08/16 10:20:26;;;;;;;1.55;0.70;;;33.50;1.00;;;;;;5001226;28;20046;-76
2023/08/16 10:22:58;;;;;;;1.45;0.90;;;33.80;1.00;;;;;;4984374;28;20045;-77
2023/08/16 10:25:26;;;;;;;1.40;0.90;;;34.00;1.00;;;;;;4979003;28;20129;-75
2023/08/16 10:27:55;;;;;;;2.28;0.80;;;34.40;1.00;;;;;;4971519;28;20043;-76
2023/08/16 10:30:25;;;;;;;0.80;0.68;;;34.50;1.00;;;;;;4996417;28;20069;-76
2023/08/16 10:33:00;;;;;;;4.03;0.60;;;34.80;1.00;;;;;;4954022;28;20073;-76
2023/08/16 10:35:27;;;;;;;1.02;0.70;;;35.30;1.00;;;;;;4984922;28;20413;-75
2023/08/16 10:37:53;;;;;;;0.82;0.70;;;35.40;1.00;;;;;;4988608;28;20440;-76
2023/08/16 10:40:23;;;;;;;2.50;0.60;;;35.10;1.00;;;;;;4981569;28;20042;-76
2023/08/16 10:42:58;;;;;;;2.88;0.90;;;35.30;1.00;;;;;;4987298;28;20053;-76
2023/08/16 10:45:28;;;;;;;2.70;0.90;;;35.20;1.00;;;;;;4970921;28;20042;-76
2023/08/16 10:47:54;;;;;;;1.13;0.73;;;35.10;1.00;;;;;;4993953;28;20053;-76
2023/08/16 10:50:31;;;;;;;2.05;0.80;;;35.10;1.00;;;;;;4997300;28;20039;-76
2023/08/16 10:52:59;;;;;;;2.38;0.80;;;35.40;1.00;;;;;;4994766;28;20183;-75
2023/08/16 10:55:25;;;;;;;1.77;0.80;;;35.80;1.00;;;;;;4998032;28;20062;-76
2023/08/16 10:57:52;;;;;;;2.00;0.80;;;36.20;1.00;;;;;;4979243;28;20229;-76
2023/08/16 11:00:19;;;;;;;1.40;0.80;;;36.50;1.00;;;;;;5002451;28;20046;-77
2023/08/16 11:02:48;;;;;;;6.60;1.02;;;36.50;1.00;;;;;;4975033;28;20130;-76
2023/08/16 11:05:21;;;;;;;1.20;0.77;;;36.20;1.00;;;;;;5002357;28;20058;-76
2023/08/16 11:07:47;;;;;;;1.00;0.88;;;36.40;1.00;;;;;;5002715;28;20049;-76
2023/08/16 11:10:13;;;;;;;3.08;1.08;;;36.70;1.00;;;;;;4968545;28;20047;-75
2023/08/16 11:12:39;;;;;;;3.15;0.98;;;37.20;1.00;;;;;;4996514;28;20042;-75
2023/08/16 11:15:05;;;;;;;2.75;1.20;;;37.60;1.00;;;;;;4968090;28;20039;-75
2023/08/16 11:17:32;;;;;;;1.95;1.60;;;37.70;1.00;;;;;;4996544;28;20043;-75
2023/08/16 11:20:00;;;;;;;3.63;1.70;;;37.80;1.00;;;;;;5002685;28;20038;-76
2023/08/16 11:22:26;;;;;;;1.52;1.42;;;37.90;1.00;;;;;;4986497;28;20038;-76
2023/08/16 11:24:52;;;;;;;2.97;1.70;;;37.90;1.00;;;;;;4984698;28;20038;-76
2023/08/16 11:27:22;;;;;;;2.42;1.17;;;37.70;1.00;;;;;;4995428;28;20049;-76
2023/08/16 11:29:52;;;;;;;1.95;0.90;;;37.60;1.00;;;;;;4979892;28;20604;-76
2023/08/16 11:32:36;;;;;;;1.48;0.90;;;37.50;1.00;;;;;;4978814;28;20065;-76
2023/08/16 11:35:08;;;;;;;1.55;0.70;;;37.00;1.00;;;;;;4992524;28;20489;-75
2023/08/16 11:37:35;;;;;;;1.25;1.15;;;35.90;1.00;;;;;;5002185;28;20042;-76
2023/08/16 11:40:05;;;;;;;1.52;0.90;;;35.80;1.00;;;;;;5002847;28;20049;-76
2023/08/16 11:42:31;;;;;;;0.90;0.65;;;35.50;1.00;;;;;;4986209;28;20034;-76
2023/08/16 11:44:56;;;;;;;1.60;0.60;;;35.80;1.00;;;;;;5003065;28;20049;-76
2023/08/16 11:47:23;;;;;;;3.67;0.75;;;36.20;1.00;;;;;;5002293;28;20412;-75
2023/08/16 11:49:49;;;;;;;2.38;0.60;;;36.60;1.00;;;;;;4986512;28;20050;-76
2023/08/16 11:52:23;;;;;;;1.33;0.63;;;36.50;1.00;;;;;;4986120;28;20046;-75
2023/08/16 11:55:05;;;;;;;2.45;0.60;;;35.60;1.00;;;;;;4986158;28;20129;-76
2023/08/16 11:57:42;;;;;;;1.88;0.70;;;35.40;1.00;;;;;;4973720;28;20046;-76
2023/08/16 12:00:08;;;;;;;2.20;0.65;;;36.00;1.00;;;;;;4984553;28;20051;-76
2023/08/16 12:02:36;;;;;;;0.90;0.60;;;36.70;1.00;;;;;;4959977;28;20046;-75
2023/08/16 12:05:09;;;;;;;1.20;0.63;;;36.90;1.00;;;;;;4986168;28;20034;-76
2023/08/16 12:07:42;;;;;;;1.13;0.60;;;36.20;1.00;;;;;;4992758;28;20505;-76
2023/08/16 12:10:08;;;;;;;2.53;0.70;;;34.40;1.00;;;;;;4984385;28;20501;-75
2023/08/16 12:12:33;;;;;;;2.30;0.73;;;32.70;1.00;;;;;;4984114;28;20054;-75
2023/08/16 12:14:59;;;;;;;3.03;0.93;;;32.50;1.00;;;;;;5000966;28;20054;-76
2023/08/16 12:17:25;;;;;;;2.40;0.70;;;33.60;1.00;;;;;;4977802;28;20129;-75
2023/08/16 12:19:50;;;;;;;2.08;0.75;;;34.70;1.00;;;;;;4989073;28;20034;-75
2023/08/16 12:22:16;;;;;;;1.75;0.88;;;35.50;1.00;;;;;;4986375;28;20046;-75
2023/08/16 12:24:41;;;;;;;2.72;0.77;;;35.90;1.00;;;;;;5000883;28;20038;-76
2023/08/16 12:27:07;;;;;;;1.40;0.65;;;34.70;1.00;;;;;;5002032;28;20053;-75
2023/08/16 12:29:33;;;;;;;1.25;0.55;;;32.90;1.00;;;;;;4968147;28;20055;-75
2023/08/16 12:31:59;;;;;;;1.90;0.80;;;32.10;1.00;;;;;;4994358;28;20444;-75
2023/08/16 12:34:25;;;;;;;0.60;0.50;;;32.90;1.00;;;;;;4980522;28;20047;-76
2023/08/16 12:36:50;;;;;;;2.00;0.52;;;34.10;1.00;;;;;;4993112;28;20125;-76
2023/08/16 12:39:16;;;;;;;2.03;0.52;;;35.00;1.00;;;;;;4984160;28;20043;-75
2023/08/16 12:41:41;;;;;;;2.05;0.70;;;35.70;1.00;;;;;;4990917;28;20408;-76
2023/08/16 12:44:07;;;;;;;2.72;0.90;;;36.40;1.00;;;;;;4986039;28;20042;-75
2023/08/16 12:46:33;;;;;;;1.08;0.50;;;36.70;1.00;;;;;;4995344;28;20077;-76
2023/08/16 12:48:59;;;;;;;0.65;0.40;;;35.70;1.00;;;;;;4987675;28;20041;-78